createdAt,value
2018-11-25T00:01:12.044Z,2.50
2018-11-25T00:03:40.005Z,2.50
2018-11-25T00:06:07.953Z,2.50
2018-11-25T00:08:36.043Z,2.50
2018-11-25T00:11:04.002Z,2.50
2018-11-25T00:13:31.962Z,2.50
2018-11-25T00:15:59.881Z,2.50
2018-11-25T00:18:27.820Z,2.50
2018-11-25T00:20:55.813Z,2.40
2018-11-25T00:23:23.834Z,2.50
2018-11-25T00:25:51.693Z,2.50
2018-11-25T00:28:19.645Z,2.50
2018-11-25T00:30:47.583Z,2.40
2018-11-25T00:33:15.518Z,2.40
2018-11-25T00:35:43.418Z,2.40
2018-11-25T00:38:11.354Z,2.40
2018-11-25T00:40:39.352Z,2.40
2018-11-25T00:43:07.288Z,2.40
2018-11-25T00:45:35.288Z,2.40
2018-11-25T00:48:03.202Z,2.40
2018-11-25T00:50:31.199Z,2.40
2018-11-25T00:52:59.126Z,2.40
2018-11-25T00:55:27.047Z,2.40
2018-11-25T00:57:54.956Z,2.40
2018-11-25T01:00:22.968Z,2.40
2018-11-25T01:02:50.974Z,2.30
2018-11-25T01:05:18.942Z,2.40
2018-11-25T01:07:46.883Z,2.40
2018-11-25T01:10:15.679Z,2.40
2018-11-25T01:12:43.856Z,2.40
2018-11-25T01:15:14.178Z,2.40
2018-11-25T01:17:42.234Z,2.40
2018-11-25T01:20:12.271Z,2.40
2018-11-25T01:22:40.324Z,2.40
2018-11-25T01:25:09.426Z,2.40
2018-11-25T01:27:37.370Z,2.40
2018-11-25T01:30:08.837Z,2.40
2018-11-25T01:32:36.762Z,2.40
2018-11-25T01:35:06.039Z,2.40
2018-11-25T01:37:34.154Z,2.50
2018-11-25T01:40:02.269Z,2.50
2018-11-25T01:42:30.191Z,2.50
2018-11-25T01:44:58.149Z,2.50
2018-11-25T01:47:26.211Z,2.50
2018-11-25T01:49:54.168Z,2.50
2018-11-25T01:52:22.111Z,2.50
2018-11-25T01:54:50.039Z,2.50
2018-11-25T01:57:18.080Z,2.40
2018-11-25T01:59:46.054Z,2.40
2018-11-25T02:02:14.008Z,2.40
2018-11-25T02:04:41.904Z,2.40
2018-11-25T02:07:09.903Z,2.40
2018-11-25T02:09:37.885Z,2.40
2018-11-25T02:12:06.131Z,2.70
2018-11-25T02:14:34.093Z,2.50
2018-11-25T02:17:02.105Z,2.40
2018-11-25T02:19:30.015Z,2.40
2018-11-25T02:21:57.982Z,2.40
2018-11-25T02:24:25.903Z,2.40
2018-11-25T02:26:53.877Z,2.40
2018-11-25T02:29:21.762Z,2.40
2018-11-25T02:31:49.716Z,2.40
2018-11-25T02:34:17.646Z,2.40
2018-11-25T02:36:45.487Z,2.30
2018-11-25T02:39:13.417Z,2.30
2018-11-25T02:41:41.352Z,2.30
2018-11-25T02:44:09.236Z,2.30
2018-11-25T02:46:37.189Z,2.30
2018-11-25T02:49:05.347Z,2.30
2018-11-25T02:51:33.248Z,2.30
2018-11-25T02:54:01.165Z,2.30
2018-11-25T02:56:29.071Z,2.30
2018-11-25T02:58:56.969Z,2.30
2018-11-25T03:01:24.825Z,2.30
2018-11-25T03:03:52.765Z,2.30
2018-11-25T03:06:20.686Z,2.30
2018-11-25T03:08:48.597Z,2.30
2018-11-25T03:11:16.505Z,2.30
2018-11-25T03:13:44.464Z,2.30
2018-11-25T03:16:12.354Z,2.30
2018-11-25T03:18:40.287Z,2.30
2018-11-25T03:21:08.230Z,2.30
2018-11-25T03:23:36.161Z,2.30
2018-11-25T03:26:04.073Z,2.30
2018-11-25T03:28:32.022Z,2.30
2018-11-25T03:30:59.981Z,2.30
2018-11-25T03:33:27.846Z,2.30
2018-11-25T03:35:55.792Z,2.30
2018-11-25T03:38:23.771Z,2.30
2018-11-25T03:40:51.746Z,1.90
2018-11-25T03:43:19.675Z,2.30
2018-11-25T03:45:47.566Z,2.30
2018-11-25T03:48:15.415Z,2.30
2018-11-25T03:50:43.328Z,2.20
2018-11-25T03:53:11.245Z,1.90
2018-11-25T03:55:39.128Z,2.20
2018-11-25T03:58:07.031Z,2.10
2018-11-25T04:00:35.010Z,2.20
2018-11-25T04:03:03.002Z,2.20
2018-11-25T04:05:30.952Z,2.20
2018-11-25T04:07:58.858Z,2.20
2018-11-25T04:10:26.796Z,2.20
2018-11-25T04:12:54.688Z,2.20
2018-11-25T04:15:22.686Z,2.20
2018-11-25T04:17:50.623Z,2.20
2018-11-25T04:20:19.314Z,2.10
2018-11-25T04:22:47.404Z,2.20
2018-11-25T04:25:15.438Z,2.10
2018-11-25T04:27:43.460Z,2.20
2018-11-25T04:30:12.598Z,2.20
2018-11-25T04:32:40.546Z,2.20
2018-11-25T04:35:09.890Z,2.20
2018-11-25T04:37:37.918Z,2.20
2018-11-25T04:40:07.454Z,2.20
2018-11-25T04:42:35.401Z,2.20
2018-11-25T04:45:03.380Z,2.20
2018-11-25T04:47:31.326Z,2.20
2018-11-25T04:49:59.190Z,2.20
2018-11-25T04:52:27.084Z,2.30
2018-11-25T04:54:54.962Z,2.30
2018-11-25T04:57:22.864Z,2.30
2018-11-25T04:59:50.790Z,2.30
2018-11-25T05:02:18.729Z,2.30
2018-11-25T05:04:46.745Z,2.30
2018-11-25T05:07:14.641Z,2.30
2018-11-25T05:09:42.502Z,2.30
2018-11-25T05:12:10.446Z,2.30
2018-11-25T05:14:38.366Z,2.30
2018-11-25T05:17:06.417Z,2.30
2018-11-25T05:19:34.300Z,2.30
2018-11-25T05:22:02.212Z,2.30
2018-11-25T05:24:30.128Z,2.30
2018-11-25T05:26:58.050Z,2.30
2018-11-25T05:29:25.970Z,2.30
2018-11-25T05:31:53.883Z,2.30
2018-11-25T05:34:21.820Z,2.30
2018-11-25T05:36:49.763Z,2.30
2018-11-25T05:39:17.634Z,2.40
2018-11-25T05:41:45.537Z,2.30
2018-11-25T05:44:13.438Z,2.30
2018-11-25T05:46:41.294Z,2.30
2018-11-25T05:49:09.212Z,2.40
2018-11-25T05:51:37.112Z,2.40
2018-11-25T05:54:05.072Z,2.40
2018-11-25T05:56:33.021Z,2.40
2018-11-25T05:59:00.951Z,2.50
2018-11-25T06:01:28.852Z,2.50
2018-11-25T06:03:56.753Z,2.50
2018-11-25T06:06:24.672Z,2.50
2018-11-25T06:08:52.633Z,2.50
2018-11-25T06:11:20.594Z,2.50
2018-11-25T06:13:48.677Z,2.50
2018-11-25T06:16:16.581Z,2.50
2018-11-25T06:18:44.425Z,2.50
2018-11-25T06:21:12.393Z,2.50
2018-11-25T06:23:40.299Z,2.50
2018-11-25T06:26:08.239Z,2.50
2018-11-25T06:28:36.268Z,2.60
2018-11-25T06:31:04.186Z,2.50
2018-11-25T06:33:32.116Z,2.50
2018-11-25T06:36:00.059Z,2.50
2018-11-25T06:38:27.956Z,2.60
2018-11-25T06:40:55.866Z,2.60
2018-11-25T06:43:23.742Z,2.70
2018-11-25T06:45:51.683Z,2.70
2018-11-25T06:48:19.561Z,2.60
2018-11-25T06:50:47.436Z,2.60
2018-11-25T06:53:15.353Z,2.60
2018-11-25T06:55:43.276Z,2.70
2018-11-25T06:58:11.204Z,2.60
2018-11-25T07:00:39.130Z,2.70
2018-11-25T07:03:07.058Z,2.70
2018-11-25T07:05:34.953Z,2.70
2018-11-25T07:08:02.828Z,2.70
2018-11-25T07:10:30.767Z,2.70
2018-11-25T07:12:58.674Z,2.80
2018-11-25T07:15:26.579Z,2.80
2018-11-25T07:17:54.629Z,2.80
2018-11-25T07:20:22.545Z,2.80
2018-11-25T07:22:50.421Z,2.80
2018-11-25T07:25:20.330Z,2.80
2018-11-25T07:27:48.279Z,2.80
2018-11-25T07:30:25.760Z,2.80
2018-11-25T07:32:53.818Z,2.80
2018-11-25T07:35:22.608Z,2.80
2018-11-25T07:37:50.502Z,2.80
2018-11-25T07:40:19.326Z,2.80
2018-11-25T07:42:47.494Z,2.80
2018-11-25T07:45:18.112Z,2.80
2018-11-25T07:47:46.042Z,2.80
2018-11-25T07:50:14.161Z,2.90
2018-11-25T07:52:43.235Z,2.90
2018-11-25T07:55:21.967Z,2.90
2018-11-25T07:57:50.806Z,2.90
2018-11-25T08:00:20.819Z,2.90
2018-11-25T08:02:48.705Z,2.90
2018-11-25T08:05:18.602Z,2.90
2018-11-25T08:07:46.544Z,3.00
2018-11-25T08:10:15.145Z,3.00
2018-11-25T08:12:43.409Z,3.00
2018-11-25T08:15:13.548Z,3.00
2018-11-25T08:17:41.572Z,3.10
2018-11-25T08:20:10.798Z,3.10
2018-11-25T08:22:38.673Z,3.20
2018-11-25T08:25:08.419Z,3.20
2018-11-25T08:27:36.292Z,3.10
2018-11-25T08:30:06.688Z,3.20
2018-11-25T08:32:34.634Z,3.20
2018-11-25T08:35:02.585Z,3.20
2018-11-25T08:37:30.664Z,3.20
2018-11-25T08:39:58.589Z,3.20
2018-11-25T08:42:26.542Z,3.30
2018-11-25T08:44:54.481Z,3.30
2018-11-25T08:47:22.416Z,3.30
2018-11-25T08:49:50.345Z,3.40
2018-11-25T08:52:18.301Z,3.40
2018-11-25T08:54:46.178Z,3.40
2018-11-25T08:57:14.137Z,3.40
2018-11-25T08:59:42.037Z,3.40
2018-11-25T09:02:09.908Z,3.40
2018-11-25T09:04:37.842Z,3.50
2018-11-25T09:07:05.811Z,3.50
2018-11-25T09:09:33.716Z,3.50
2018-11-25T09:12:01.683Z,3.50
2018-11-25T09:14:29.613Z,3.50
2018-11-25T09:16:57.484Z,3.60
2018-11-25T09:19:25.374Z,3.60
2018-11-25T09:21:53.250Z,3.60
2018-11-25T09:24:21.156Z,3.60
2018-11-25T09:26:49.050Z,3.60
2018-11-25T09:29:17.021Z,3.60
2018-11-25T09:31:44.942Z,3.60
2018-11-25T09:34:12.877Z,3.60
2018-11-25T09:36:40.780Z,3.50
2018-11-25T09:39:09.025Z,3.50
2018-11-25T09:41:36.905Z,3.60
2018-11-25T09:44:04.941Z,3.60
2018-11-25T09:46:32.843Z,3.60
2018-11-25T09:49:00.703Z,3.60
2018-11-25T09:51:28.629Z,3.70
2018-11-25T09:53:56.510Z,3.60
2018-11-25T09:56:24.375Z,3.60
2018-11-25T09:58:52.238Z,3.60
2018-11-25T10:01:20.098Z,3.60
2018-11-25T10:03:48.006Z,3.60
2018-11-25T10:06:15.903Z,3.70
2018-11-25T10:08:43.818Z,3.70
2018-11-25T10:11:11.693Z,3.70
2018-11-25T10:13:39.660Z,3.70
2018-11-25T10:16:07.617Z,3.70
2018-11-25T10:18:35.556Z,3.60
2018-11-25T10:21:03.507Z,3.60
2018-11-25T10:23:31.462Z,3.60
2018-11-25T10:25:59.446Z,3.60
2018-11-25T10:28:27.458Z,3.60
2018-11-25T10:30:55.455Z,3.60
2018-11-25T10:33:23.363Z,3.60
2018-11-25T10:35:51.253Z,3.70
2018-11-25T10:38:19.202Z,3.70
2018-11-25T10:40:47.094Z,3.70
2018-11-25T10:43:15.050Z,3.80
2018-11-25T10:45:42.953Z,3.90
2018-11-25T10:48:10.866Z,3.90
2018-11-25T10:50:38.802Z,4.00
2018-11-25T10:53:06.686Z,4.10
2018-11-25T10:55:34.625Z,4.10
2018-11-25T10:58:02.608Z,4.10
2018-11-25T11:00:38.694Z,4.20
2018-11-25T11:03:14.413Z,4.20
2018-11-25T11:05:47.981Z,4.20
2018-11-25T11:08:16.454Z,4.20
2018-11-25T11:10:44.398Z,4.20
2018-11-25T11:13:12.640Z,4.20
2018-11-25T11:15:40.702Z,4.20
2018-11-25T11:18:08.667Z,4.20
2018-11-25T11:20:36.836Z,4.30
2018-11-25T11:23:05.120Z,4.30
2018-11-25T11:25:34.162Z,4.20
2018-11-25T11:28:02.367Z,4.20
2018-11-25T11:30:30.291Z,4.20
2018-11-25T11:32:58.200Z,4.20
2018-11-25T11:35:26.160Z,4.10
2018-11-25T11:37:54.097Z,4.10
2018-11-25T11:40:21.977Z,4.10
2018-11-25T11:42:49.862Z,4.10
2018-11-25T11:45:17.918Z,4.10
2018-11-25T11:47:45.837Z,4.20
2018-11-25T11:50:16.870Z,4.20
2018-11-25T11:52:44.795Z,4.10
2018-11-25T11:55:13.806Z,4.00
2018-11-25T11:57:42.382Z,4.00
2018-11-25T12:00:14.274Z,4.00
2018-11-25T12:02:42.173Z,4.00
2018-11-25T12:05:10.141Z,4.10
2018-11-25T12:07:38.220Z,4.00
2018-11-25T12:10:09.367Z,4.00
2018-11-25T12:12:37.298Z,4.00
2018-11-25T12:15:08.960Z,4.00
2018-11-25T12:17:36.817Z,4.00
2018-11-25T12:20:05.022Z,4.00
2018-11-25T12:22:32.928Z,4.00
2018-11-25T12:25:00.886Z,3.90
2018-11-25T12:27:28.802Z,3.90
2018-11-25T12:29:56.717Z,3.90
2018-11-25T12:32:24.660Z,4.00
2018-11-25T12:34:52.604Z,4.00
2018-11-25T12:37:20.532Z,4.00
2018-11-25T12:39:48.435Z,3.90
2018-11-25T12:42:16.330Z,3.90
2018-11-25T12:44:44.184Z,3.90
2018-11-25T12:47:12.289Z,3.90
2018-11-25T12:49:40.175Z,3.90
2018-11-25T12:52:08.099Z,3.90
2018-11-25T12:54:36.153Z,3.90
2018-11-25T12:57:04.029Z,3.90
2018-11-25T12:59:31.860Z,3.90
2018-11-25T13:01:59.762Z,3.90
2018-11-25T13:04:27.988Z,3.90
2018-11-25T13:06:56.212Z,3.90
2018-11-25T13:09:24.098Z,3.90
2018-11-25T13:11:52.545Z,3.90
2018-11-25T13:14:19.947Z,3.90
2018-11-25T13:16:47.837Z,3.90
2018-11-25T13:19:15.750Z,3.90
2018-11-25T13:21:43.667Z,3.90
2018-11-25T13:24:11.673Z,3.90
2018-11-25T13:26:39.605Z,3.90
2018-11-25T13:29:07.657Z,3.80
2018-11-25T13:31:35.610Z,3.80
2018-11-25T13:34:03.602Z,3.80
2018-11-25T13:36:31.546Z,3.80
2018-11-25T13:38:59.414Z,3.80
2018-11-25T13:41:27.282Z,3.80
2018-11-25T13:43:55.164Z,3.80
2018-11-25T13:46:23.088Z,3.90
2018-11-25T13:48:51.155Z,3.90
2018-11-25T13:51:19.177Z,3.90
2018-11-25T13:53:47.085Z,3.90
2018-11-25T13:56:15.032Z,3.90
2018-11-25T13:58:43.018Z,3.80
2018-11-25T14:01:10.896Z,3.80
2018-11-25T14:03:40.690Z,3.80
2018-11-25T14:06:10.917Z,3.80
2018-11-25T14:08:38.837Z,3.80
2018-11-25T14:11:11.267Z,3.80
2018-11-25T14:13:39.273Z,3.70
2018-11-25T14:16:08.852Z,3.70
2018-11-25T14:18:36.695Z,3.70
2018-11-25T14:21:05.032Z,3.70
2018-11-25T14:23:32.909Z,3.70
2018-11-25T14:26:06.565Z,3.80
2018-11-25T14:28:34.478Z,3.80
2018-11-25T14:31:02.388Z,3.80
2018-11-25T14:33:31.109Z,3.80
2018-11-25T14:35:58.341Z,3.80
2018-11-25T14:38:26.237Z,3.80
2018-11-25T14:40:54.135Z,3.80
2018-11-25T14:43:22.020Z,3.90
2018-11-25T14:45:49.909Z,3.80
2018-11-25T14:48:17.786Z,3.80
2018-11-25T14:50:45.745Z,3.80
2018-11-25T14:53:13.612Z,3.80
2018-11-25T14:55:41.547Z,3.80
2018-11-25T14:58:09.557Z,3.80
2018-11-25T15:00:37.453Z,3.80
2018-11-25T15:03:06.559Z,3.80
2018-11-25T15:05:43.675Z,3.80
2018-11-25T15:08:13.318Z,3.80
2018-11-25T15:10:41.247Z,3.80
2018-11-25T15:13:09.360Z,3.80
2018-11-25T15:15:37.296Z,3.80
2018-11-25T15:18:06.218Z,3.80
2018-11-25T15:20:34.133Z,3.70
2018-11-25T15:23:03.895Z,3.80
2018-11-25T15:25:34.368Z,3.80
2018-11-25T15:28:02.297Z,3.80
2018-11-25T15:30:30.234Z,3.80
2018-11-25T15:32:58.157Z,3.80
2018-11-25T15:35:26.056Z,3.80
2018-11-25T15:37:54.529Z,3.80
2018-11-25T15:40:24.073Z,3.90
2018-11-25T15:42:52.024Z,3.90
2018-11-25T15:45:20.036Z,3.90
2018-11-25T15:47:51.425Z,3.70
2018-11-25T15:50:24.314Z,3.80
2018-11-25T15:52:52.317Z,3.80
2018-11-25T15:55:20.734Z,3.80
2018-11-25T15:57:48.665Z,3.80
2018-11-25T16:00:18.653Z,3.80
2018-11-25T16:02:46.633Z,3.80
2018-11-25T16:05:17.192Z,3.80
2018-11-25T16:07:45.105Z,3.80
2018-11-25T16:10:13.449Z,3.80
2018-11-25T16:12:42.823Z,3.80
2018-11-25T16:15:14.868Z,3.80
2018-11-25T16:17:43.668Z,3.80
2018-11-25T16:20:12.991Z,3.80
2018-11-25T16:22:40.899Z,3.80
2018-11-25T16:25:23.290Z,3.80
2018-11-25T16:27:53.385Z,3.80
2018-11-25T16:30:21.296Z,3.80
2018-11-25T16:32:49.223Z,3.80
2018-11-25T16:35:17.141Z,3.80
2018-11-25T16:37:45.051Z,3.80
2018-11-25T16:40:14.905Z,3.80
2018-11-25T16:42:42.893Z,3.80
2018-11-25T16:45:14.025Z,3.80
2018-11-25T16:47:42.010Z,3.80
2018-11-25T16:50:11.386Z,3.80
2018-11-25T16:52:39.444Z,3.60
2018-11-25T16:55:09.586Z,3.80
2018-11-25T16:57:39.926Z,3.80
2018-11-25T17:00:15.127Z,3.80
2018-11-25T17:02:43.192Z,3.80
2018-11-25T17:05:16.549Z,3.90
2018-11-25T17:07:45.493Z,3.80
2018-11-25T17:10:13.414Z,3.80
2018-11-25T17:12:41.303Z,3.80
2018-11-25T17:15:14.036Z,3.80
2018-11-25T17:17:41.904Z,3.90
2018-11-25T17:20:10.049Z,3.90
2018-11-25T17:22:49.907Z,3.90
2018-11-25T17:25:17.862Z,3.90
2018-11-25T17:27:45.800Z,3.90
2018-11-25T17:30:16.831Z,3.90
2018-11-25T17:32:45.515Z,3.90
2018-11-25T17:35:14.984Z,3.90
2018-11-25T17:37:42.854Z,3.90
2018-11-25T17:40:10.832Z,4.00
2018-11-25T17:42:39.143Z,3.90
2018-11-25T17:45:09.522Z,3.90
2018-11-25T17:47:37.505Z,3.90
2018-11-25T17:50:36.759Z,4.00
2018-11-25T17:53:05.094Z,4.00
2018-11-25T17:55:33.138Z,4.00
2018-11-25T17:58:01.098Z,4.00
2018-11-25T18:00:38.556Z,4.00
2018-11-25T18:03:08.710Z,4.00
2018-11-25T18:05:38.836Z,4.00
2018-11-25T18:08:04.878Z,4.10
2018-11-25T18:10:32.805Z,4.00
2018-11-25T18:13:00.750Z,4.00
2018-11-25T18:15:28.673Z,4.00
2018-11-25T18:17:58.322Z,4.00
2018-11-25T18:20:29.589Z,4.00
2018-11-25T18:22:57.502Z,4.00
2018-11-25T18:25:25.415Z,4.00
2018-11-25T18:28:00.339Z,4.00
2018-11-25T18:30:21.464Z,4.00
2018-11-25T18:32:49.500Z,4.00
2018-11-25T18:35:17.426Z,4.00
2018-11-25T18:37:45.352Z,4.10
2018-11-25T18:40:13.702Z,4.10
2018-11-25T18:42:42.431Z,4.10
2018-11-25T18:45:11.803Z,4.10
2018-11-25T18:47:39.886Z,4.00
2018-11-25T18:50:11.086Z,4.00
2018-11-25T18:52:39.034Z,4.10
2018-11-25T18:55:05.718Z,4.10
2018-11-25T18:57:33.676Z,4.10
2018-11-25T19:00:01.626Z,4.10
2018-11-25T19:02:40.437Z,4.10
2018-11-25T19:05:08.570Z,4.10
2018-11-25T19:07:36.665Z,4.10
2018-11-25T19:10:08.771Z,4.10
2018-11-25T19:12:43.996Z,4.10
2018-11-25T19:15:06.267Z,4.10
2018-11-25T19:17:34.226Z,4.10
2018-11-25T19:20:02.261Z,4.10
2018-11-25T19:22:30.218Z,4.10
2018-11-25T19:24:58.156Z,4.00
2018-11-25T19:27:26.077Z,4.00
2018-11-25T19:29:54.077Z,4.00
2018-11-25T19:32:22.133Z,4.00
2018-11-25T19:34:49.980Z,4.00
2018-11-25T19:37:17.913Z,4.10
2018-11-25T19:39:45.872Z,4.10
2018-11-25T19:42:13.792Z,4.10
2018-11-25T19:44:41.722Z,4.10
2018-11-25T19:47:09.793Z,4.10
2018-11-25T19:49:37.754Z,4.10
2018-11-25T19:52:05.780Z,4.10
2018-11-25T19:54:33.934Z,4.10
2018-11-25T19:57:01.967Z,4.10
2018-11-25T19:59:29.908Z,4.10
2018-11-25T20:01:57.957Z,4.10
2018-11-25T20:04:25.900Z,4.20
2018-11-25T20:06:53.915Z,4.20
2018-11-25T20:09:22.001Z,4.20
2018-11-25T20:11:50.035Z,4.20
2018-11-25T20:14:18.057Z,4.30
2018-11-25T20:16:51.633Z,4.30
2018-11-25T20:19:19.729Z,4.30
2018-11-25T20:21:53.337Z,4.30
2018-11-25T20:24:21.523Z,4.30
2018-11-25T20:26:55.099Z,4.30
2018-11-25T20:29:23.076Z,4.30
2018-11-25T20:31:56.759Z,4.30
2018-11-25T20:34:24.682Z,4.20
2018-11-25T20:36:52.726Z,4.20
2018-11-25T20:39:36.485Z,4.20
2018-11-25T20:42:04.466Z,4.20
2018-11-25T20:44:32.372Z,4.20
2018-11-25T20:47:05.622Z,4.30
2018-11-25T20:49:34.458Z,4.20
2018-11-25T20:52:08.053Z,4.20
2018-11-25T20:54:35.964Z,4.20
2018-11-25T20:57:04.055Z,4.20
2018-11-25T20:59:31.978Z,4.20
2018-11-25T21:02:00.647Z,4.20
2018-11-25T21:04:28.550Z,4.20
2018-11-25T21:06:56.509Z,4.20
2018-11-25T21:09:24.434Z,4.20
2018-11-25T21:11:52.381Z,4.20
2018-11-25T21:14:20.311Z,4.20
2018-11-25T21:16:48.269Z,4.20
2018-11-25T21:19:16.237Z,4.30
2018-11-25T21:21:44.142Z,3.90
2018-11-25T21:24:12.077Z,4.20
2018-11-25T21:26:40.022Z,4.20
2018-11-25T21:29:07.938Z,4.20
2018-11-25T21:31:35.876Z,4.20
2018-11-25T21:34:03.915Z,4.20
2018-11-25T21:36:31.917Z,4.20
2018-11-25T21:38:59.778Z,4.20
2018-11-25T21:41:27.716Z,4.20
2018-11-25T21:46:30.133Z,4.20
2018-11-25T21:48:58.037Z,4.20
2018-11-25T21:51:25.971Z,4.20
2018-11-25T21:53:53.883Z,4.20
2018-11-25T21:56:21.852Z,4.20
2018-11-25T21:58:49.762Z,4.30
2018-11-25T22:01:17.649Z,4.30
2018-11-25T22:03:45.569Z,4.30
2018-11-25T22:06:13.428Z,4.30
2018-11-25T22:08:41.433Z,4.20
2018-11-25T22:11:09.345Z,4.20
2018-11-25T22:13:37.217Z,4.30
2018-11-25T22:16:05.662Z,4.30
2018-11-25T22:18:33.500Z,4.30
2018-11-25T22:21:01.383Z,4.30
2018-11-25T22:23:29.346Z,4.20
2018-11-25T22:25:57.251Z,4.30
2018-11-25T22:28:25.160Z,4.30
2018-11-25T22:30:53.054Z,4.30
2018-11-25T22:33:20.954Z,4.30
2018-11-25T22:35:48.833Z,4.30
2018-11-25T22:38:16.819Z,4.30
2018-11-25T22:40:44.685Z,4.30
2018-11-25T22:43:12.553Z,4.30
2018-11-25T22:45:40.528Z,4.30
2018-11-25T22:48:08.503Z,4.30
2018-11-25T22:50:36.456Z,4.30
2018-11-25T22:53:04.382Z,4.30
2018-11-25T22:55:32.278Z,4.30
2018-11-25T22:58:00.160Z,4.30
2018-11-25T23:00:32.501Z,4.30
2018-11-25T23:03:00.510Z,4.30
2018-11-25T23:05:39.642Z,4.30
2018-11-25T23:08:07.589Z,4.30
2018-11-25T23:10:35.673Z,4.30
2018-11-25T23:13:03.672Z,4.30
2018-11-25T23:15:31.712Z,4.40
2018-11-25T23:17:59.634Z,4.00
2018-11-25T23:20:27.582Z,4.40
2018-11-25T23:22:55.484Z,4.40
2018-11-25T23:25:23.378Z,4.40
2018-11-25T23:27:51.321Z,4.40
2018-11-25T23:30:19.241Z,4.40
2018-11-25T23:32:47.348Z,4.40
2018-11-25T23:35:18.619Z,4.40
2018-11-25T23:37:46.529Z,4.40
2018-11-25T23:40:14.428Z,4.40
2018-11-25T23:42:42.343Z,4.40
2018-11-25T23:45:11.727Z,4.40
2018-11-25T23:47:39.670Z,4.40
2018-11-25T23:50:09.284Z,4.40
2018-11-25T23:52:37.609Z,4.40
2018-11-25T23:55:07.230Z,4.40
2018-11-25T23:57:35.484Z,4.40
